createdAt,value
2017-04-14T00:00:20.904Z,1003.2
2017-04-14T00:01:01.416Z,1003.21
2017-04-14T00:01:41.926Z,1003.19
2017-04-14T00:02:22.454Z,1003.2
2017-04-14T00:03:02.973Z,1003.2
2017-04-14T00:03:43.507Z,1003.19
2017-04-14T00:04:24.015Z,1003.23
2017-04-14T00:05:04.533Z,1003.2
2017-04-14T00:05:45.043Z,1003.17
2017-04-14T00:06:25.564Z,1003.24
2017-04-14T00:07:06.074Z,1003.19
2017-04-14T00:07:46.577Z,1003.16
2017-04-14T00:08:27.088Z,1003.17
2017-04-14T00:09:07.610Z,1003.19
2017-04-14T00:09:48.098Z,1003.22
2017-04-14T00:10:28.616Z,1003.24
2017-04-14T00:11:09.143Z,1003.22
2017-04-14T00:11:49.659Z,1003.21
2017-04-14T00:12:30.151Z,1003.22
2017-04-14T00:13:10.644Z,1003.22
2017-04-14T00:13:51.193Z,1003.19
2017-04-14T00:14:31.709Z,1003.21
2017-04-14T00:15:12.224Z,1003.22
2017-04-14T00:15:52.724Z,1003.22
2017-04-14T00:16:33.242Z,1003.21
2017-04-14T00:17:13.766Z,1003.24
2017-04-14T00:17:54.270Z,1003.19
2017-04-14T00:18:34.795Z,1003.23
2017-04-14T00:19:15.294Z,1003.23
2017-04-14T00:19:55.810Z,1003.2
2017-04-14T00:20:36.342Z,1003.25
2017-04-14T00:21:16.820Z,1003.21
2017-04-14T00:21:57.339Z,1003.18
2017-04-14T00:22:37.855Z,1003.2
2017-04-14T00:23:18.369Z,1003.24
2017-04-14T00:23:58.892Z,1003.2
2017-04-14T00:24:39.424Z,1003.25
2017-04-14T00:25:19.918Z,1003.23
2017-04-14T00:26:00.425Z,1003.22
2017-04-14T00:26:40.947Z,1003.22
2017-04-14T00:27:21.477Z,1003.22
2017-04-14T00:28:01.984Z,1003.18
2017-04-14T00:28:42.494Z,1003.2
2017-04-14T00:29:23.011Z,1003.19
2017-04-14T00:30:03.532Z,1003.2
2017-04-14T00:30:44.027Z,1003.21
2017-04-14T00:31:24.542Z,1003.24
2017-04-14T00:32:05.057Z,1003.2
2017-04-14T00:32:45.567Z,1003.19
2017-04-14T00:33:26.073Z,1003.23
2017-04-14T00:34:06.584Z,1003.21
2017-04-14T00:34:47.108Z,1003.17
2017-04-14T00:35:27.608Z,1003.17
2017-04-14T00:36:08.127Z,1003.13
2017-04-14T00:36:48.636Z,1003.21
2017-04-14T00:37:29.141Z,1003.19
2017-04-14T00:38:09.692Z,1003.13
2017-04-14T00:38:50.170Z,1003.15
2017-04-14T00:39:30.697Z,1003.2
2017-04-14T00:40:11.225Z,1003.15
2017-04-14T00:40:51.747Z,1003.13
2017-04-14T00:41:32.264Z,1003.16
2017-04-14T00:42:12.790Z,1003.22
2017-04-14T00:42:53.288Z,1003.16
2017-04-14T00:43:33.814Z,1003.16
2017-04-14T00:44:14.309Z,1003.18
2017-04-14T00:44:54.823Z,1003.18
2017-04-14T00:45:35.362Z,1003.19
2017-04-14T00:46:15.848Z,1003.2
2017-04-14T00:46:56.353Z,1003.18
2017-04-14T00:47:36.872Z,1003.18
2017-04-14T00:48:17.393Z,1003.18
2017-04-14T00:48:57.895Z,1003.19
2017-04-14T00:49:38.412Z,1003.21
2017-04-14T00:50:18.899Z,1003.21
2017-04-14T00:50:59.406Z,1003.16
2017-04-14T00:51:39.907Z,1003.15
2017-04-14T00:52:20.439Z,1003.14
2017-04-14T00:53:00.924Z,1003.17
2017-04-14T00:53:41.449Z,1003.13
2017-04-14T00:54:21.927Z,1003.15
2017-04-14T00:55:02.432Z,1003.08
2017-04-14T00:55:42.945Z,1003.11
2017-04-14T00:56:23.462Z,1003.1
2017-04-14T00:57:03.975Z,1003.06
2017-04-14T00:57:44.498Z,1003.09
2017-04-14T00:58:25.029Z,1003.08
2017-04-14T00:59:05.529Z,1003.09
2017-04-14T00:59:46.042Z,1003.08
2017-04-14T01:00:26.569Z,1003.06
2017-04-14T01:01:07.089Z,1003.07
2017-04-14T01:01:47.589Z,1003
2017-04-14T01:02:28.120Z,1003.06
2017-04-14T01:03:08.614Z,1003.06
2017-04-14T01:03:49.121Z,1003.05
2017-04-14T01:04:29.642Z,1003.03
2017-04-14T01:05:10.122Z,1003
2017-04-14T01:05:50.616Z,1003.01
2017-04-14T01:06:31.133Z,1002.99
2017-04-14T01:07:11.631Z,1002.98
2017-04-14T01:07:52.158Z,1003.03
2017-04-14T01:08:32.689Z,1003.01
2017-04-14T01:09:13.156Z,1003.01
2017-04-14T01:09:53.681Z,1003.03
2017-04-14T01:10:34.180Z,1003.01
2017-04-14T01:11:14.675Z,1003.03
2017-04-14T01:11:55.175Z,1003.01
2017-04-14T01:12:35.687Z,1003.03
2017-04-14T01:13:16.215Z,1003.03
2017-04-14T01:13:56.719Z,1003.03
2017-04-14T01:14:37.202Z,1003.04
2017-04-14T01:15:17.714Z,1003.02
2017-04-14T01:15:58.231Z,1003.06
2017-04-14T01:16:38.767Z,1003.05
2017-04-14T01:17:19.276Z,1003.04
2017-04-14T01:17:59.788Z,1003.08
2017-04-14T01:18:40.305Z,1003.04
2017-04-14T01:19:20.794Z,1003.1
2017-04-14T01:20:01.307Z,1003.05
2017-04-14T01:20:41.861Z,1003.08
2017-04-14T01:21:22.378Z,1003.1
2017-04-14T01:22:02.907Z,1003.06
2017-04-14T01:22:43.403Z,1003.06
2017-04-14T01:23:23.940Z,1003.08
2017-04-14T01:24:04.417Z,1003.12
2017-04-14T01:24:44.934Z,1003.09
2017-04-14T01:25:25.440Z,1003.06
2017-04-14T01:26:05.956Z,1003.12
2017-04-14T01:26:46.466Z,1003.07
2017-04-14T01:27:27.004Z,1003.05
2017-04-14T01:28:07.494Z,1003.04
2017-04-14T01:28:48.011Z,1003.06
2017-04-14T01:29:28.510Z,1003.01
2017-04-14T01:30:09.012Z,1003.05
2017-04-14T01:30:49.529Z,1003.07
2017-04-14T01:31:30.041Z,1003.05
2017-04-14T01:32:10.546Z,1003.07
2017-04-14T01:32:51.070Z,1003.04
2017-04-14T01:33:31.572Z,1003.05
2017-04-14T01:34:12.100Z,1003.08
2017-04-14T01:34:52.618Z,1003.02
2017-04-14T01:35:33.120Z,1003.02
2017-04-14T01:36:13.622Z,1003.04
2017-04-14T01:36:54.126Z,1003.05
2017-04-14T01:37:34.639Z,1003.04
2017-04-14T01:38:15.183Z,1003.04
2017-04-14T01:38:55.653Z,1003.06
2017-04-14T01:39:36.147Z,1003.03
2017-04-14T01:40:16.664Z,1003.04
2017-04-14T01:40:57.181Z,1003.04
2017-04-14T01:41:37.711Z,1003.04
2017-04-14T01:42:18.220Z,1003.05
2017-04-14T01:42:58.715Z,1003.02
2017-04-14T01:43:39.240Z,1002.99
2017-04-14T01:44:19.754Z,1003
2017-04-14T01:45:00.258Z,1003.03
2017-04-14T01:45:40.788Z,1003.01
2017-04-14T01:46:21.294Z,1002.99
2017-04-14T01:47:01.816Z,1003.01
2017-04-14T01:47:42.340Z,1003.02
2017-04-14T01:48:22.780Z,1003.01
2017-04-14T01:49:03.311Z,1003.01
2017-04-14T01:49:43.791Z,1003.02
2017-04-14T01:50:24.317Z,1003.06
2017-04-14T01:51:04.836Z,1003.05
2017-04-14T01:51:45.340Z,1003.08
2017-04-14T01:52:25.870Z,1003.05
2017-04-14T01:53:06.363Z,1003.05
2017-04-14T01:53:46.865Z,1003.04
2017-04-14T01:54:27.378Z,1003.05
2017-04-14T01:55:07.885Z,1003.11
2017-04-14T01:55:48.401Z,1003.07
2017-04-14T01:56:28.922Z,1003.06
2017-04-14T01:57:09.438Z,1003.08
2017-04-14T01:57:49.965Z,1003.08
2017-04-14T01:58:30.478Z,1003.08
2017-04-14T01:59:10.974Z,1003.04
2017-04-14T01:59:51.477Z,1003.06
2017-04-14T02:00:32.043Z,1003.06
2017-04-14T02:01:12.527Z,1003.09
2017-04-14T02:01:53.026Z,1003.08
2017-04-14T02:02:33.548Z,1003.04
2017-04-14T02:03:14.068Z,1003.05
2017-04-14T02:03:54.600Z,1003.09
2017-04-14T02:04:35.071Z,1003.05
2017-04-14T02:05:15.592Z,1003.04
2017-04-14T02:05:56.089Z,1003.04
2017-04-14T02:06:36.618Z,1003.11
2017-04-14T02:07:17.135Z,1003.09
2017-04-14T02:07:57.652Z,1003.09
2017-04-14T02:08:38.169Z,1003.08
2017-04-14T02:09:18.669Z,1003.08
2017-04-14T02:09:59.195Z,1003.13
2017-04-14T02:10:39.698Z,1003.07
2017-04-14T02:11:20.218Z,1003.07
2017-04-14T02:12:00.733Z,1003.06
2017-04-14T02:12:41.237Z,1003.09
2017-04-14T02:13:21.761Z,1003.07
2017-04-14T02:14:02.247Z,1003.07
2017-04-14T02:14:42.762Z,1003.13
2017-04-14T02:15:23.285Z,1003.11
2017-04-14T02:16:03.796Z,1003.09
2017-04-14T02:16:44.310Z,1003.07
2017-04-14T02:17:24.834Z,1003.07
2017-04-14T02:18:05.356Z,1003.07
2017-04-14T02:18:45.880Z,1003.05
2017-04-14T02:19:26.375Z,1003.04
2017-04-14T02:20:06.888Z,1003.09
2017-04-14T02:20:47.390Z,1003.08
2017-04-14T02:21:27.916Z,1003.07
2017-04-14T02:22:08.427Z,1003.07
2017-04-14T02:22:48.955Z,1003.1
2017-04-14T02:23:29.452Z,1003.08
2017-04-14T02:24:09.975Z,1003.1
2017-04-14T02:24:50.483Z,1003.1
2017-04-14T02:25:30.997Z,1003.1
2017-04-14T02:26:11.512Z,1003.08
2017-04-14T02:26:52.008Z,1003.06
2017-04-14T02:27:32.500Z,1003.09
2017-04-14T02:28:13.015Z,1003.07
2017-04-14T02:28:53.529Z,1003.08
2017-04-14T02:29:34.025Z,1003.11
2017-04-14T02:30:14.535Z,1003.06
2017-04-14T02:30:55.061Z,1003.08
2017-04-14T02:31:35.569Z,1003.09
2017-04-14T02:32:16.071Z,1003.08
2017-04-14T02:32:56.578Z,1003.12
2017-04-14T02:33:37.119Z,1003.06
2017-04-14T02:34:17.613Z,1003.11
2017-04-14T02:34:58.124Z,1003.09
2017-04-14T02:35:38.623Z,1003.11
2017-04-14T02:36:19.162Z,1003.11
2017-04-14T02:36:59.713Z,1003.1
2017-04-14T02:37:40.172Z,1003.08
2017-04-14T02:38:20.700Z,1003.07
2017-04-14T02:39:01.259Z,1003.1
2017-04-14T02:39:41.762Z,1003.04
2017-04-14T02:40:22.269Z,1003.09
2017-04-14T02:41:02.786Z,1003.1
2017-04-14T02:41:43.302Z,1003.06
2017-04-14T02:42:23.826Z,1003.05
2017-04-14T02:43:04.312Z,1003.08
2017-04-14T02:43:44.855Z,1003.04
2017-04-14T02:44:25.390Z,1003.04
2017-04-14T02:45:05.884Z,1003.02
2017-04-14T02:45:46.401Z,1003.04
2017-04-14T02:46:26.907Z,1003.03
2017-04-14T02:47:07.402Z,1003
2017-04-14T02:47:47.905Z,1003.02
2017-04-14T02:48:28.418Z,1003.02
2017-04-14T02:49:08.932Z,1002.99
2017-04-14T02:49:49.432Z,1002.98
2017-04-14T02:50:29.950Z,1002.98
2017-04-14T02:51:10.455Z,1003.04
2017-04-14T02:51:50.971Z,1003
2017-04-14T02:52:31.498Z,1003
2017-04-14T02:53:12.005Z,1003.01
2017-04-14T02:53:52.521Z,1003.04
2017-04-14T02:54:33.030Z,1003.05
2017-04-14T02:55:13.534Z,1003
2017-04-14T02:55:54.032Z,1003.03
2017-04-14T02:56:34.547Z,1003.02
2017-04-14T02:57:15.062Z,1003.02
2017-04-14T02:57:55.586Z,1003
2017-04-14T02:58:36.108Z,1002.97
2017-04-14T02:59:16.629Z,1002.93
2017-04-14T02:59:57.132Z,1002.99
2017-04-14T03:00:37.645Z,1002.99
2017-04-14T03:01:18.172Z,1003.02
2017-04-14T03:01:58.666Z,1003
2017-04-14T03:02:39.188Z,1002.97
2017-04-14T03:03:19.700Z,1002.99
2017-04-14T03:04:00.175Z,1002.98
2017-04-14T03:04:40.696Z,1002.97
2017-04-14T03:05:21.174Z,1002.95
2017-04-14T03:06:01.711Z,1002.99
2017-04-14T03:06:42.140Z,1002.97
2017-04-14T03:07:22.668Z,1002.95
2017-04-14T03:08:03.135Z,1002.95
2017-04-14T03:08:43.616Z,1002.94
2017-04-14T03:09:24.115Z,1002.95
2017-04-14T03:11:21.774Z,1002.86
2017-04-14T03:12:02.282Z,1002.87
2017-04-14T03:12:42.788Z,1002.91
2017-04-14T03:13:23.312Z,1002.96
2017-04-14T03:14:03.841Z,1002.95
2017-04-14T03:14:44.340Z,1002.91
2017-04-14T03:15:24.858Z,1002.97
2017-04-14T03:16:05.363Z,1002.95
2017-04-14T03:16:45.870Z,1002.97
2017-04-14T03:17:26.402Z,1002.95
2017-04-14T03:18:06.888Z,1002.99
2017-04-14T03:18:47.395Z,1002.95
2017-04-14T03:19:27.896Z,1002.94
2017-04-14T03:20:08.414Z,1002.96
2017-04-14T03:20:48.909Z,1002.91
2017-04-14T03:21:29.408Z,1002.99
2017-04-14T03:22:09.908Z,1002.95
2017-04-14T03:22:50.422Z,1002.92
2017-04-14T03:23:30.948Z,1002.93
2017-04-14T03:24:11.522Z,1002.93
2017-04-14T03:24:51.972Z,1002.9
2017-04-14T03:25:32.494Z,1002.88
2017-04-14T03:26:12.982Z,1002.89
2017-04-14T03:26:53.499Z,1002.92
2017-04-14T03:27:34.013Z,1002.88
2017-04-14T03:28:14.524Z,1002.9
2017-04-14T03:28:55.037Z,1002.91
2017-04-14T03:29:35.574Z,1002.95
2017-04-14T03:30:16.058Z,1002.9
2017-04-14T03:30:56.573Z,1002.93
2017-04-14T03:31:37.077Z,1002.95
2017-04-14T03:32:17.588Z,1002.95
2017-04-14T03:32:58.105Z,1002.99
2017-04-14T03:33:38.647Z,1002.98
2017-04-14T03:34:19.161Z,1002.98
2017-04-14T03:34:59.668Z,1002.98
2017-04-14T03:35:40.179Z,1002.97
2017-04-14T03:36:20.682Z,1002.96
2017-04-14T03:37:01.217Z,1002.99
2017-04-14T03:37:41.748Z,1002.94
2017-04-14T03:38:22.247Z,1002.95
2017-04-14T03:39:02.761Z,1002.97
2017-04-14T03:39:43.279Z,1002.99
2017-04-14T03:40:23.780Z,1002.97
2017-04-14T03:41:04.302Z,1002.95
2017-04-14T03:41:44.814Z,1002.97
2017-04-14T03:42:25.344Z,1002.98
2017-04-14T03:43:05.838Z,1002.97
2017-04-14T03:43:46.358Z,1002.97
2017-04-14T03:44:26.872Z,1002.95
2017-04-14T03:45:07.379Z,1002.92
2017-04-14T03:45:47.883Z,1002.99
2017-04-14T03:46:28.397Z,1002.97
2017-04-14T03:47:08.902Z,1003.02
2017-04-14T03:47:49.423Z,1002.98
2017-04-14T03:48:29.936Z,1002.98
2017-04-14T03:49:10.435Z,1003.02
2017-04-14T03:49:50.935Z,1002.98
2017-04-14T03:50:31.445Z,1002.95
2017-04-14T03:51:11.959Z,1002.96
2017-04-14T03:53:09.628Z,1002.98
2017-04-14T03:53:50.136Z,1002.97
2017-04-14T03:54:30.651Z,1002.99
2017-04-14T03:55:11.163Z,1003
2017-04-14T03:55:51.663Z,1003.03
2017-04-14T03:56:32.196Z,1003.06
2017-04-14T03:57:12.713Z,1002.99
2017-04-14T03:57:53.243Z,1003.03
2017-04-14T03:58:33.752Z,1003.04
2017-04-14T03:59:14.317Z,1003.06
2017-04-14T03:59:54.841Z,1003.02
2017-04-14T04:00:35.351Z,1003.05
2017-04-14T04:01:15.837Z,1003.04
2017-04-14T04:01:56.335Z,1002.99
2017-04-14T04:02:36.848Z,1003
2017-04-14T04:03:17.344Z,1003.03
2017-04-14T04:03:57.842Z,1003.02
2017-04-14T04:04:38.345Z,1003.07
2017-04-14T04:05:18.847Z,1003.01
2017-04-14T04:05:59.361Z,1003.01
2017-04-14T04:06:39.876Z,1002.98
2017-04-14T04:07:20.393Z,1003.02
2017-04-14T04:08:00.915Z,1002.99
2017-04-14T04:08:41.414Z,1002.98
2017-04-14T04:09:21.913Z,1002.99
2017-04-14T04:10:02.398Z,1003.03
2017-04-14T04:10:42.889Z,1003.04
2017-04-14T04:11:23.366Z,1003.05
2017-04-14T04:12:03.876Z,1003.02
2017-04-14T04:12:44.387Z,1003.02
2017-04-14T04:13:24.904Z,1003.02
2017-04-14T04:14:05.429Z,1003.02
2017-04-14T04:14:45.939Z,1003.03
2017-04-14T04:15:26.481Z,1003.04
2017-04-14T04:16:06.964Z,1003
2017-04-14T04:16:47.480Z,1003.04
2017-04-14T04:17:27.982Z,1003.06
2017-04-14T04:18:08.497Z,1003.04
2017-04-14T04:18:49.021Z,1003.03
2017-04-14T04:19:29.537Z,1003.06
2017-04-14T04:20:10.039Z,1003.07
2017-04-14T04:20:50.560Z,1003.03
2017-04-14T04:21:31.066Z,1003.07
2017-04-14T04:22:11.568Z,1003.01
2017-04-14T04:22:52.096Z,1003.04
2017-04-14T04:23:32.582Z,1003.04
2017-04-14T04:24:13.115Z,1003.04
2017-04-14T04:24:53.594Z,1003.07
2017-04-14T04:25:34.089Z,1003.08
2017-04-14T04:26:14.594Z,1003.12
2017-04-14T04:26:55.107Z,1003.06
2017-04-14T04:27:35.592Z,1003.15
2017-04-14T04:28:16.110Z,1003.11
2017-04-14T04:28:56.623Z,1003.09
2017-04-14T04:29:37.128Z,1003.13
2017-04-14T04:30:17.644Z,1003.14
2017-04-14T04:30:58.159Z,1003.15
2017-04-14T04:31:38.665Z,1003.17
2017-04-14T04:32:19.176Z,1003.18
2017-04-14T04:32:59.685Z,1003.19
2017-04-14T04:33:40.199Z,1003.14
2017-04-14T04:34:20.735Z,1003.12
2017-04-14T04:35:01.240Z,1003.18
2017-04-14T04:35:41.744Z,1003.11
2017-04-14T04:36:22.254Z,1003.12
2017-04-14T04:37:02.766Z,1003.15
2017-04-14T04:37:43.280Z,1003.14
2017-04-14T04:38:24.425Z,1003.14
2017-04-14T04:39:04.930Z,1003.16
2017-04-14T04:39:45.435Z,1003.11
2017-04-14T04:40:25.954Z,1003.15
2017-04-14T04:41:06.453Z,1003.18
2017-04-14T04:41:46.982Z,1003.16
2017-04-14T04:42:27.495Z,1003.19
2017-04-14T04:43:08.010Z,1003.17
2017-04-14T04:43:48.523Z,1003.16
2017-04-14T04:44:29.034Z,1003.15
2017-04-14T04:45:09.546Z,1003.15
2017-04-14T04:45:50.046Z,1003.18
2017-04-14T04:46:30.571Z,1003.18
2017-04-14T04:47:11.066Z,1003.18
2017-04-14T04:47:51.591Z,1003.15
2017-04-14T04:48:32.098Z,1003.19
2017-04-14T04:49:12.608Z,1003.17
2017-04-14T04:49:53.120Z,1003.21
2017-04-14T04:50:33.627Z,1003.2
2017-04-14T04:51:14.131Z,1003.2
2017-04-14T04:51:54.643Z,1003.25
2017-04-14T04:52:35.164Z,1003.26
2017-04-14T04:53:15.638Z,1003.25
2017-04-14T04:53:56.176Z,1003.25
2017-04-14T04:54:36.649Z,1003.25
2017-04-14T04:55:17.180Z,1003.28
2017-04-14T04:55:57.667Z,1003.3
2017-04-14T04:56:38.178Z,1003.29
2017-04-14T04:57:18.670Z,1003.33
2017-04-14T04:57:59.187Z,1003.32
2017-04-14T04:58:39.693Z,1003.33
2017-04-14T04:59:20.205Z,1003.35
2017-04-14T05:00:00.724Z,1003.35
2017-04-14T05:00:41.231Z,1003.33
2017-04-14T05:01:21.750Z,1003.36
2017-04-14T05:02:02.257Z,1003.33
2017-04-14T05:02:42.771Z,1003.32
2017-04-14T05:03:23.278Z,1003.38
2017-04-14T05:04:03.797Z,1003.41
2017-04-14T05:04:44.314Z,1003.44
2017-04-14T05:05:24.821Z,1003.45
2017-04-14T05:06:05.357Z,1003.43
2017-04-14T05:06:45.881Z,1003.4
2017-04-14T05:07:26.412Z,1003.45
2017-04-14T05:08:06.926Z,1003.46
2017-04-14T05:08:47.424Z,1003.47
2017-04-14T05:09:27.938Z,1003.47
2017-04-14T05:10:08.427Z,1003.5
2017-04-14T05:10:48.974Z,1003.42
2017-04-14T05:11:29.455Z,1003.5
2017-04-14T05:12:09.953Z,1003.5
2017-04-14T05:12:50.535Z,1003.5
2017-04-14T05:13:30.993Z,1003.48
2017-04-14T05:14:11.468Z,1003.44
2017-04-14T05:14:51.979Z,1003.5
2017-04-14T05:15:33.158Z,1003.49
2017-04-14T05:16:13.683Z,1003.5
2017-04-14T05:16:54.181Z,1003.5
2017-04-14T05:17:34.639Z,1003.5
2017-04-14T05:18:15.129Z,1003.48
2017-04-14T05:18:55.710Z,1003.52
2017-04-14T05:19:36.215Z,1003.47
2017-04-14T05:20:16.735Z,1003.51
2017-04-14T05:20:57.238Z,1003.5
2017-04-14T05:21:37.695Z,1003.51
2017-04-14T05:22:18.221Z,1003.49
2017-04-14T05:22:58.717Z,1003.5
2017-04-14T05:23:39.190Z,1003.52
2017-04-14T05:24:19.724Z,1003.52
2017-04-14T05:25:00.215Z,1003.56
2017-04-14T05:25:40.742Z,1003.61
2017-04-14T05:26:21.242Z,1003.59
2017-04-14T05:27:01.751Z,1003.59
2017-04-14T05:27:42.273Z,1003.55
2017-04-14T05:28:22.778Z,1003.56
2017-04-14T05:29:03.346Z,1003.6
2017-04-14T05:29:43.794Z,1003.55
2017-04-14T05:30:24.305Z,1003.56
2017-04-14T05:31:04.812Z,1003.6
2017-04-14T05:31:45.332Z,1003.58
2017-04-14T05:32:25.826Z,1003.54
2017-04-14T05:33:06.366Z,1003.6
2017-04-14T05:33:46.870Z,1003.62
2017-04-14T05:34:27.366Z,1003.65
2017-04-14T05:35:07.881Z,1003.61
2017-04-14T05:35:48.400Z,1003.64
2017-04-14T05:36:28.926Z,1003.61
2017-04-14T05:37:09.447Z,1003.63
2017-04-14T05:37:49.975Z,1003.64
2017-04-14T05:38:30.501Z,1003.65
2017-04-14T05:39:11.034Z,1003.69
2017-04-14T05:39:51.542Z,1003.67
2017-04-14T05:40:32.069Z,1003.72
2017-04-14T05:41:12.614Z,1003.72
2017-04-14T05:41:53.116Z,1003.71
2017-04-14T05:42:33.648Z,1003.73
2017-04-14T05:43:14.153Z,1003.72
2017-04-14T05:43:54.648Z,1003.73
2017-04-14T05:44:35.149Z,1003.75
2017-04-14T05:45:15.669Z,1003.72
2017-04-14T05:45:56.208Z,1003.79
2017-04-14T05:46:36.701Z,1003.73
2017-04-14T05:47:17.238Z,1003.75
2017-04-14T05:47:57.720Z,1003.75
2017-04-14T05:48:38.250Z,1003.73
2017-04-14T05:49:18.770Z,1003.75
2017-04-14T05:49:59.294Z,1003.77
2017-04-14T05:50:39.790Z,1003.76
2017-04-14T05:51:20.296Z,1003.77
2017-04-14T05:52:00.811Z,1003.78
2017-04-14T05:52:41.323Z,1003.77
2017-04-14T05:53:21.896Z,1003.78
2017-04-14T05:54:02.390Z,1003.82
2017-04-14T05:54:42.911Z,1003.78
2017-04-14T05:55:23.451Z,1003.81
2017-04-14T05:56:03.960Z,1003.81
2017-04-14T05:56:44.485Z,1003.8
2017-04-14T05:57:24.970Z,1003.81
2017-04-14T05:58:05.501Z,1003.83
2017-04-14T05:58:46.006Z,1003.82
2017-04-14T05:59:26.558Z,1003.82
2017-04-14T06:00:07.070Z,1003.84
2017-04-14T06:00:47.593Z,1003.84
2017-04-14T06:01:28.094Z,1003.85
2017-04-14T06:02:08.641Z,1003.85
2017-04-14T06:02:49.114Z,1003.86
2017-04-14T06:03:29.625Z,1003.85
2017-04-14T06:04:10.150Z,1003.84
2017-04-14T06:04:50.633Z,1003.86
2017-04-14T06:05:31.155Z,1003.81
2017-04-14T06:06:11.658Z,1003.8
2017-04-14T06:06:52.177Z,1003.84
2017-04-14T06:07:32.687Z,1003.81
2017-04-14T06:08:13.179Z,1003.83
2017-04-14T06:08:53.696Z,1003.85
2017-04-14T06:09:34.218Z,1003.84
2017-04-14T06:10:14.683Z,1003.82
2017-04-14T06:10:55.195Z,1003.83
2017-04-14T06:11:35.708Z,1003.85
2017-04-14T06:12:16.202Z,1003.82
2017-04-14T06:12:56.716Z,1003.88
2017-04-14T06:13:37.206Z,1003.89
2017-04-14T06:14:17.736Z,1003.81
2017-04-14T06:14:58.301Z,1003.86
2017-04-14T06:15:38.762Z,1003.85
2017-04-14T06:16:19.272Z,1003.87
2017-04-14T06:16:59.783Z,1003.88
2017-04-14T06:17:40.271Z,1003.89
2017-04-14T06:18:20.769Z,1003.83
2017-04-14T06:19:01.288Z,1003.91
2017-04-14T06:19:41.827Z,1003.91
2017-04-14T06:20:22.322Z,1003.88
2017-04-14T06:21:02.832Z,1003.93
2017-04-14T06:21:43.349Z,1003.91
2017-04-14T06:22:23.904Z,1003.91
2017-04-14T06:23:04.431Z,1003.9
2017-04-14T06:23:44.910Z,1003.85
2017-04-14T06:24:25.411Z,1003.89
2017-04-14T06:25:05.948Z,1003.94
2017-04-14T06:25:46.392Z,1003.94
2017-04-14T06:26:26.941Z,1003.9
2017-04-14T06:27:07.433Z,1003.94
2017-04-14T06:27:47.950Z,1003.94
2017-04-14T06:28:28.431Z,1003.96
2017-04-14T06:29:08.974Z,1004
2017-04-14T06:29:49.488Z,1003.96
2017-04-14T06:30:29.985Z,1003.97
2017-04-14T06:31:10.548Z,1003.95
2017-04-14T06:31:51.638Z,1003.96
2017-04-14T06:32:32.146Z,1004.03
2017-04-14T06:33:12.626Z,1003.95
2017-04-14T06:33:53.967Z,1003.96
2017-04-14T06:34:34.468Z,1003.98
2017-04-14T06:35:15.008Z,1003.97
2017-04-14T06:35:55.463Z,1003.97
2017-04-14T06:36:35.989Z,1003.99
2017-04-14T06:39:04.077Z,1004.01
2017-04-14T06:39:44.603Z,1003.94
2017-04-14T06:40:25.085Z,1003.96
2017-04-14T06:41:05.618Z,1003.96
2017-04-14T06:41:46.112Z,1003.97
2017-04-14T06:42:26.618Z,1003.99
2017-04-14T06:43:07.260Z,1003.99
2017-04-14T06:43:47.633Z,1004
2017-04-14T06:44:28.154Z,1003.95
2017-04-14T06:45:08.689Z,1003.95
2017-04-14T06:45:49.181Z,1003.96
2017-04-14T06:46:29.686Z,1003.99
2017-04-14T06:47:10.234Z,1003.99
2017-04-14T06:47:50.718Z,1003.97
2017-04-14T06:48:31.238Z,1004.01
2017-04-14T06:49:11.705Z,1003.99
2017-04-14T06:49:52.185Z,1003.98
2017-04-14T06:50:32.673Z,1003.97
2017-04-14T06:51:13.181Z,1004.03
2017-04-14T06:51:53.672Z,1003.96
2017-04-14T06:52:34.133Z,1004
2017-04-14T06:53:14.680Z,1003.99
2017-04-14T06:53:55.158Z,1004.02
2017-04-14T06:54:35.686Z,1003.97
2017-04-14T06:55:16.148Z,1003.99
2017-04-14T06:55:56.674Z,1003.99
2017-04-14T06:56:37.151Z,1003.96
2017-04-14T06:57:17.671Z,1003.98
2017-04-14T06:57:58.179Z,1004.01
2017-04-14T06:58:38.668Z,1003.96
2017-04-14T06:59:19.186Z,1003.99
2017-04-14T06:59:59.710Z,1004.04
2017-04-14T07:00:40.199Z,1004.01
2017-04-14T07:01:20.737Z,1004.04
2017-04-14T07:02:01.234Z,1004.06
2017-04-14T07:02:41.802Z,1004.05
2017-04-14T07:03:22.289Z,1004.09
2017-04-14T07:04:02.903Z,1004.06
2017-04-14T07:04:43.457Z,1004.08
2017-04-14T07:05:23.979Z,1004.09
2017-04-14T07:06:04.501Z,1004.09
2017-04-14T07:06:44.970Z,1004.09
2017-04-14T07:07:25.491Z,1004.08
2017-04-14T07:08:05.993Z,1004.01
2017-04-14T07:08:46.495Z,1004
2017-04-14T07:09:27.004Z,1004.03
2017-04-14T07:10:07.523Z,1004.06
2017-04-14T07:10:48.042Z,1004.06
2017-04-14T07:11:28.556Z,1004.04
2017-04-14T07:12:09.066Z,1004.07
2017-04-14T07:12:49.601Z,1004.09
2017-04-14T07:13:30.116Z,1004.05
2017-04-14T07:14:10.614Z,1004.09
2017-04-14T07:16:29.557Z,1004.09
2017-04-14T07:17:10.074Z,1004.1
2017-04-14T07:17:50.602Z,1004.12
2017-04-14T07:18:31.119Z,1004.13
2017-04-14T07:19:11.653Z,1004.1
2017-04-14T07:19:52.178Z,1004.09
2017-04-14T07:20:32.724Z,1004.15
2017-04-14T07:21:13.242Z,1004.05
2017-04-14T07:21:53.738Z,1004.1
2017-04-14T07:22:34.215Z,1004.12
2017-04-14T07:23:14.735Z,1004.13
2017-04-14T07:23:55.210Z,1004.13
2017-04-14T07:24:35.777Z,1004.11
2017-04-14T07:25:16.228Z,1004.15
2017-04-14T07:25:56.728Z,1004.14
2017-04-14T07:26:37.226Z,1004.09
2017-04-14T07:27:17.823Z,1004.11
2017-04-14T07:27:58.355Z,1004.12
2017-04-14T07:28:38.797Z,1004.11
2017-04-14T07:29:19.352Z,1004.12
2017-04-14T07:29:59.882Z,1004.1
2017-04-14T07:30:40.357Z,1004.16
2017-04-14T07:31:20.867Z,1004.16
2017-04-14T07:32:01.411Z,1004.16
2017-04-14T07:32:41.942Z,1004.15
2017-04-14T07:33:22.435Z,1004.19
2017-04-14T07:34:03.246Z,1004.18
2017-04-14T07:34:43.856Z,1004.17
2017-04-14T07:35:24.428Z,1004.19
2017-04-14T07:36:04.927Z,1004.19
2017-04-14T07:36:45.385Z,1004.27
2017-04-14T07:37:25.926Z,1004.26
2017-04-14T07:38:08.262Z,1004.26
2017-04-14T07:38:50.689Z,1004.33
2017-04-14T07:39:32.208Z,1004.28
2017-04-14T07:40:12.735Z,1004.29
2017-04-14T07:40:53.265Z,1004.3
2017-04-14T07:41:33.767Z,1004.28
2017-04-14T07:42:14.284Z,1004.27
2017-04-14T07:42:54.791Z,1004.32
2017-04-14T07:43:35.251Z,1004.26
2017-04-14T07:44:15.754Z,1004.31
2017-04-14T07:44:56.283Z,1004.21
2017-04-14T07:45:36.748Z,1004.21
2017-04-14T07:46:17.345Z,1004.22
2017-04-14T07:46:57.807Z,1004.27
2017-04-14T07:47:38.354Z,1004.22
2017-04-14T07:48:18.763Z,1004.26
2017-04-14T07:48:59.254Z,1004.25
2017-04-14T07:49:39.839Z,1004.29
2017-04-14T07:50:20.295Z,1004.33
2017-04-14T07:51:00.890Z,1004.34
2017-04-14T07:51:41.365Z,1004.37
2017-04-14T07:52:21.839Z,1004.34
2017-04-14T07:53:02.444Z,1004.36
2017-04-14T07:53:42.957Z,1004.33
2017-04-14T07:54:23.371Z,1004.34
2017-04-14T07:55:03.910Z,1004.3
2017-04-14T07:55:44.407Z,1004.31
2017-04-14T07:56:24.891Z,1004.26
2017-04-14T07:57:05.385Z,1004.3
2017-04-14T07:57:45.873Z,1004.33
2017-04-14T07:58:26.361Z,1004.35
2017-04-14T07:59:06.864Z,1004.32
2017-04-14T07:59:47.363Z,1004.37
2017-04-14T08:00:27.819Z,1004.32
2017-04-14T08:01:08.335Z,1004.35
2017-04-14T08:01:48.838Z,1004.35
2017-04-14T08:02:29.361Z,1004.36
2017-04-14T08:03:09.872Z,1004.37
2017-04-14T08:03:50.400Z,1004.42
2017-04-14T08:04:30.906Z,1004.36
2017-04-14T08:05:11.434Z,1004.36
2017-04-14T08:05:51.852Z,1004.37
2017-04-14T08:06:32.331Z,1004.36
2017-04-14T08:07:12.846Z,1004.39
2017-04-14T08:07:53.305Z,1004.35
2017-04-14T08:08:33.839Z,1004.39
2017-04-14T08:09:14.365Z,1004.4
2017-04-14T08:09:54.803Z,1004.41
2017-04-14T08:10:35.318Z,1004.39
2017-04-14T08:11:15.808Z,1004.41
2017-04-14T08:11:56.270Z,1004.37
2017-04-14T08:12:36.802Z,1004.38
2017-04-14T08:13:17.278Z,1004.38
2017-04-14T08:13:57.771Z,1004.41
2017-04-14T08:14:38.280Z,1004.35
2017-04-14T08:15:18.782Z,1004.4
2017-04-14T08:15:59.307Z,1004.43
2017-04-14T08:16:39.814Z,1004.36
2017-04-14T08:17:20.296Z,1004.4
2017-04-14T08:18:00.820Z,1004.4